Barry, IL (62312)

11:18 AM CST on February 08, 2016 (GMT -0600)
West of Downtown Barry | | Change Station
CLOSE
Current Station
Personal Weather Station
Location: Barry, IL
Elevation: 728 ft
Nearby Weather Stations

Elev 728 ft 39.69 °N, 91.04 °W | Updated 16 seconds ago

Snow
Snow
21.2 °F
Feels Like 10 °F
N
9.8
Wind Variable Wind from NW
Gusts 21.3 mph

Today
High -- | Low -- °F
--% Chance of Precip.
Yesterday
High -- | Low -- °F
Precip. -- in
Pressure 29.89 in
Visibility 2.5 miles
Clouds Scattered Clouds 1700 ft
Mostly Cloudy 2300 ft
Overcast 2800 ft
Windchill 10 °F
Dew Point 10 °F
Humidity 62%
Rainfall 0.00 in
Snow Depth Not available.
7:05 AM 5:31 PM
New Moon, 0% visible
METAR KPPQ 081655Z AUTO 29017G21KT 2 1/2SM -SN SCT017 BKN023 OVC028 M06/M10 A2989 RMK AO2 T10571098
Pressure 29.89 in
Visibility 2.5 miles
Clouds Scattered Clouds 1700 ft
Mostly Cloudy 2300 ft
Overcast 2800 ft
Windchill 10 °F
Dew Point 10 °F
Humidity 62%
Rainfall 0.00 in
Snow Depth Not available.
7:05 AM 5:31 PM
New Moon, 0% visible
METAR KPPQ 081655Z AUTO 29017G21KT 2 1/2SM -SN SCT017 BKN023 OVC028 M06/M10 A2989 RMK AO2 T10571098

10-Day Weather Forecast

Almanac

Astronomy

Feb. 08, 2016 Rise Set
Actual Time
Civil Twilight
Nautical Twilight
Astronomical Twilight
Moon
Length of Visible Light
Length of Day
Tomorrow will be .
, % of the Moon is Illuminated

Today's Extremes

State Highs State Lows

Community

WunderPhotos

Upload Photos

1,891,471 photos uploaded!

WunderBlog® & News

Nearby

Air Quality

  Air Quality AQ Index Pollutant
Not available.

Snow Depth

Station Depth Elevation

Earthquake Activity

City Distance Mag. Time & Date
Minimum magnitude displayed is 2.5.

Coastal Water Temperatures

Place Temperature

Stations

Nearby Weather Stations

Station Location Temp. Windchill Dew Point Humidity Wind Precip. Elev Updated Type
                   

Watches & Warnings

There are currently no watches in effect.